Time;durP1;ratioP1;P1;durP2;ratioP2;P2;SDS_P1;SDS_P2;PMS_P1;PMS_P2;Temp;Humidity;BMP_temperature;BMP_pressure;BME280_temperature;BME280_humidity;BME280_pressure;Samples;Min_cycle;Max_cycle;Signal;HPM_P1;HPM_P2
2021/11/23 00:01:01;;;;;;;1.60;1.08;;;;;;;;;;5072320;28;20176;-61
2021/11/23 00:03:27;;;;;;;1.02;0.70;;;;;;;;;;5072858;28;20029;-61
2021/11/23 00:05:53;;;;;;;1.23;0.80;;;;;;;;;;5073241;28;20028;-61
2021/11/23 00:08:20;;;;;;;1.45;0.75;;;;;;;;;;5070846;28;20112;-61
2021/11/23 00:10:46;;;;;;;2.42;1.05;;;;;;;;;;5072995;28;20025;-61
2021/11/23 00:13:14;;;;;;;1.20;0.90;;;;;;;;;;5072038;28;20024;-61
2021/11/23 00:15:40;;;;;;;1.42;0.70;;;;;;;;;;5073118;28;20029;-61
2021/11/23 00:18:08;;;;;;;1.02;0.77;;;;;;;;;;5071894;28;20039;-60
2021/11/23 00:20:35;;;;;;;1.33;0.90;;;;;;;;;;5073046;28;20032;-61
2021/11/23 00:23:01;;;;;;;0.93;0.80;;;;;;;;;;5058933;28;20052;-60
2021/11/23 00:25:28;;;;;;;0.82;0.70;;;;;;;;;;5071369;28;20033;-61
2021/11/23 00:27:55;;;;;;;1.70;0.82;;;;;;;;;;5072668;28;20440;-61
2021/11/23 00:30:21;;;;;;;0.88;0.75;;;;;;;;;;5071859;28;20440;-61
2021/11/23 00:32:48;;;;;;;0.93;0.52;;;;;;;;;;5072492;28;20025;-61
2021/11/23 00:35:15;;;;;;;1.13;0.70;;;;;;;;;;5071472;28;20067;-61
2021/11/23 00:37:43;;;;;;;1.30;1.00;;;;;;;;;;5070274;28;20032;-61
2021/11/23 00:40:10;;;;;;;1.92;1.05;;;;;;;;;;5071712;28;20031;-61
2021/11/23 00:42:37;;;;;;;1.10;0.77;;;;;;;;;;5072581;28;20578;-61
2021/11/23 00:45:03;;;;;;;0.95;0.80;;;;;;;;;;5071094;28;20119;-60
2021/11/23 00:47:30;;;;;;;1.33;0.80;;;;;;;;;;5070955;28;20426;-61
2021/11/23 00:49:55;;;;;;;1.20;0.80;;;;;;;;;;5072176;28;20024;-60
2021/11/23 00:52:21;;;;;;;0.82;0.68;;;;;;;;;;5071326;28;20033;-61
2021/11/23 00:54:47;;;;;;;1.25;0.95;;;;;;;;;;5072290;28;20024;-61
2021/11/23 00:57:14;;;;;;;1.08;0.82;;;;;;;;;;5070959;28;20032;-61
2021/11/23 00:59:40;;;;;;;1.50;0.90;;;;;;;;;;5070714;28;20099;-61
2021/11/23 01:02:06;;;;;;;2.92;0.90;;;;;;;;;;5071642;28;20019;-60
2021/11/23 01:04:32;;;;;;;4.75;0.80;;;;;;;;;;5071952;28;20397;-61
2021/11/23 01:07:00;;;;;;;0.80;0.60;;;;;;;;;;5071921;28;20028;-60
2021/11/23 01:09:26;;;;;;;0.82;0.73;;;;;;;;;;5071029;28;20033;-61
2021/11/23 01:11:52;;;;;;;0.88;0.80;;;;;;;;;;5072147;28;20107;-61
2021/11/23 01:14:19;;;;;;;3.03;0.88;;;;;;;;;;5070837;28;20917;-61
2021/11/23 01:16:47;;;;;;;1.00;0.70;;;;;;;;;;5071818;28;20378;-58
2021/11/23 01:19:14;;;;;;;0.82;0.63;;;;;;;;;;5055828;28;20108;-58
2021/11/23 01:21:41;;;;;;;0.90;0.63;;;;;;;;;;5050481;28;20039;-61
2021/11/23 01:24:08;;;;;;;2.08;0.90;;;;;;;;;;5046978;28;20024;-61
2021/11/23 01:26:34;;;;;;;1.23;1.10;;;;;;;;;;5050731;28;20032;-60
2021/11/23 01:29:06;;;;;;;2.05;0.70;;;;;;;;;;5051012;28;20053;-60
2021/11/23 01:31:32;;;;;;;1.88;0.60;;;;;;;;;;5048407;28;20444;-61
2021/11/23 01:33:58;;;;;;;2.17;0.80;;;;;;;;;;5050327;28;20100;-61
2021/11/23 01:36:24;;;;;;;0.90;0.70;;;;;;;;;;5049803;28;20045;-61
2021/11/23 01:38:50;;;;;;;1.30;0.82;;;;;;;;;;5053736;28;20501;-61
2021/11/23 01:41:17;;;;;;;0.77;0.73;;;;;;;;;;5049564;28;20109;-61
2021/11/23 01:43:43;;;;;;;1.48;0.75;;;;;;;;;;5051751;28;20025;-61
2021/11/23 01:46:09;;;;;;;1.23;0.70;;;;;;;;;;5048780;28;20112;-61
2021/11/23 01:48:35;;;;;;;1.20;0.60;;;;;;;;;;5051364;28;20459;-61
2021/11/23 01:51:05;;;;;;;1.50;0.70;;;;;;;;;;5056561;28;20081;-60
2021/11/23 01:53:31;;;;;;;0.75;0.60;;;;;;;;;;5055530;28;20473;-61
2021/11/23 01:55:57;;;;;;;0.75;0.60;;;;;;;;;;5057031;28;20053;-61
2021/11/23 01:58:23;;;;;;;0.77;0.60;;;;;;;;;;5058696;28;20029;-61
2021/11/23 02:00:50;;;;;;;0.63;0.50;;;;;;;;;;5058764;28;20032;-61
2021/11/23 02:03:16;;;;;;;1.45;0.70;;;;;;;;;;5057954;28;20038;-61
2021/11/23 02:05:42;;;;;;;1.17;0.95;;;;;;;;;;5058878;28;20065;-60
2021/11/23 02:08:11;;;;;;;1.45;0.52;;;;;;;;;;5060666;28;20378;-60
2021/11/23 02:10:37;;;;;;;1.00;0.60;;;;;;;;;;5056845;28;20017;-61
2021/11/23 02:13:04;;;;;;;0.80;0.60;;;;;;;;;;5055906;28;20478;-60
2021/11/23 02:15:30;;;;;;;1.25;0.60;;;;;;;;;;5058240;28;20033;-61
2021/11/23 02:17:56;;;;;;;0.75;0.68;;;;;;;;;;5058987;28;20351;-62
2021/11/23 02:20:23;;;;;;;0.80;0.70;;;;;;;;;;5055866;28;20017;-61
2021/11/23 02:22:50;;;;;;;0.60;0.60;;;;;;;;;;5056748;28;20033;-61
2021/11/23 02:25:17;;;;;;;0.82;0.60;;;;;;;;;;5055480;28;20497;-61
2021/11/23 02:27:44;;;;;;;0.60;0.60;;;;;;;;;;5058576;28;20446;-60
2021/11/23 02:30:11;;;;;;;1.15;0.65;;;;;;;;;;5055765;28;20028;-60
2021/11/23 02:32:42;;;;;;;0.50;0.50;;;;;;;;;;5056524;28;20104;-60
2021/11/23 02:35:08;;;;;;;1.17;0.73;;;;;;;;;;5053204;28;20371;-61
2021/11/23 02:37:40;;;;;;;0.80;0.63;;;;;;;;;;5060915;28;20504;-61
2021/11/23 02:40:07;;;;;;;0.60;0.60;;;;;;;;;;5055737;28;20075;-61
2021/11/23 02:42:33;;;;;;;0.88;0.60;;;;;;;;;;5056587;28;20103;-61
2021/11/23 02:44:59;;;;;;;0.60;0.50;;;;;;;;;;5062727;28;20397;-61
2021/11/23 02:47:25;;;;;;;1.80;0.57;;;;;;;;;;5076794;28;20075;-61
2021/11/23 02:49:51;;;;;;;0.57;0.57;;;;;;;;;;5077088;28;20361;-61
2021/11/23 02:52:17;;;;;;;1.23;0.90;;;;;;;;;;5076868;28;20123;-61
2021/11/23 02:54:57;;;;;;;0.70;0.70;;;;;;;;;;5077380;28;20031;-61
2021/11/23 02:57:29;;;;;;;1.77;0.60;;;;;;;;;;5076707;28;20099;-61
2021/11/23 02:59:55;;;;;;;0.98;0.63;;;;;;;;;;5077795;28;20079;-61
2021/11/23 03:02:22;;;;;;;0.80;0.55;;;;;;;;;;5072557;28;20040;-61
2021/11/23 03:04:55;;;;;;;0.88;0.80;;;;;;;;;;5073968;28;20107;-60
2021/11/23 03:07:23;;;;;;;0.90;0.68;;;;;;;;;;5073159;28;20485;-60
2021/11/23 03:09:49;;;;;;;1.05;0.90;;;;;;;;;;5074163;28;20145;-61
2021/11/23 03:12:22;;;;;;;0.60;0.60;;;;;;;;;;5073640;28;20060;-61
2021/11/23 03:14:48;;;;;;;0.90;0.80;;;;;;;;;;5073848;28;20032;-61
2021/11/23 03:17:16;;;;;;;1.70;0.60;;;;;;;;;;5072935;28;20056;-61
2021/11/23 03:19:43;;;;;;;0.90;0.60;;;;;;;;;;5074250;28;20033;-61
2021/11/23 03:22:10;;;;;;;0.80;0.50;;;;;;;;;;5067025;28;20128;-61
2021/11/23 03:24:37;;;;;;;0.57;0.50;;;;;;;;;;5053842;28;20048;-61
2021/11/23 03:27:05;;;;;;;1.30;0.77;;;;;;;;;;5055839;28;20481;-59
2021/11/23 03:29:31;;;;;;;0.90;0.70;;;;;;;;;;5073982;28;20055;-61
2021/11/23 03:31:57;;;;;;;1.63;0.70;;;;;;;;;;5074140;28;20078;-61
2021/11/23 03:34:23;;;;;;;1.23;0.70;;;;;;;;;;5072734;28;20040;-61
2021/11/23 03:36:50;;;;;;;0.90;0.55;;;;;;;;;;5073607;28;20075;-61
2021/11/23 03:39:16;;;;;;;1.08;0.68;;;;;;;;;;5073053;28;20086;-61
2021/11/23 03:41:42;;;;;;;0.95;0.80;;;;;;;;;;5073723;28;20056;-61
2021/11/23 03:44:09;;;;;;;0.57;0.57;;;;;;;;;;5032901;28;20033;-61
2021/11/23 03:46:35;;;;;;;0.95;0.52;;;;;;;;;;5033766;28;20037;-62
2021/11/23 03:49:03;;;;;;;1.80;0.70;;;;;;;;;;5067214;28;20190;-60
2021/11/23 03:51:29;;;;;;;1.30;0.70;;;;;;;;;;5073352;28;20029;-61
2021/11/23 03:53:55;;;;;;;0.80;0.57;;;;;;;;;;5073382;28;20035;-61
2021/11/23 03:56:21;;;;;;;1.20;0.57;;;;;;;;;;5071547;28;20750;-61
2021/11/23 03:58:48;;;;;;;1.13;0.90;;;;;;;;;;5073175;28;20032;-60
2021/11/23 04:01:14;;;;;;;1.10;0.60;;;;;;;;;;5072239;28;20090;-60
2021/11/23 04:03:40;;;;;;;1.17;0.73;;;;;;;;;;5073165;28;20103;-61
2021/11/23 04:06:06;;;;;;;1.00;0.60;;;;;;;;;;5072431;28;20370;-60
2021/11/23 04:08:33;;;;;;;1.17;0.70;;;;;;;;;;5072887;28;20437;-61
2021/11/23 04:10:59;;;;;;;1.02;0.73;;;;;;;;;;5072702;28;20036;-61
2021/11/23 04:13:25;;;;;;;0.95;0.65;;;;;;;;;;5072319;28;20042;-61
2021/11/23 04:15:52;;;;;;;0.95;0.68;;;;;;;;;;5073244;28;20414;-61
2021/11/23 04:18:18;;;;;;;1.60;0.52;;;;;;;;;;5071923;28;20448;-58
2021/11/23 04:20:44;;;;;;;1.58;0.85;;;;;;;;;;5072816;28;20430;-60
2021/11/23 04:23:11;;;;;;;0.82;0.60;;;;;;;;;;5057411;28;20374;-58
2021/11/23 04:25:37;;;;;;;1.25;0.63;;;;;;;;;;5054294;28;20029;-58
2021/11/23 04:28:10;;;;;;;2.33;0.68;;;;;;;;;;5072331;28;20033;-60
2021/11/23 04:30:36;;;;;;;1.10;0.63;;;;;;;;;;5071212;28;20028;-61
2021/11/23 04:33:02;;;;;;;0.55;0.50;;;;;;;;;;5072829;28;20028;-61
2021/11/23 04:35:28;;;;;;;0.50;0.50;;;;;;;;;;5071700;28;20048;-61
2021/11/23 04:37:54;;;;;;;1.20;0.80;;;;;;;;;;5072211;28;20058;-61
2021/11/23 04:40:20;;;;;;;0.80;0.60;;;;;;;;;;5071893;28;20032;-61
2021/11/23 04:42:47;;;;;;;1.02;0.57;;;;;;;;;;5072718;28;20059;-61
2021/11/23 04:45:14;;;;;;;0.88;0.85;;;;;;;;;;5071158;28;20028;-60
2021/11/23 04:47:40;;;;;;;0.63;0.50;;;;;;;;;;5072408;28;20029;-61
2021/11/23 04:50:09;;;;;;;0.73;0.73;;;;;;;;;;5071337;28;20527;-60
2021/11/23 04:52:35;;;;;;;0.70;0.60;;;;;;;;;;5072455;28;20033;-61
2021/11/23 04:55:01;;;;;;;0.73;0.68;;;;;;;;;;5072004;28;20450;-61
2021/11/23 04:57:27;;;;;;;0.85;0.68;;;;;;;;;;5070821;28;20088;-61
2021/11/23 04:59:53;;;;;;;1.13;0.90;;;;;;;;;;5072381;28;20020;-61
2021/11/23 05:02:20;;;;;;;0.85;0.60;;;;;;;;;;5071582;28;20025;-61
2021/11/23 05:04:46;;;;;;;0.90;0.60;;;;;;;;;;5071672;28;20470;-60
2021/11/23 05:07:12;;;;;;;2.15;0.93;;;;;;;;;;5070466;28;20020;-60
2021/11/23 05:09:38;;;;;;;1.13;0.70;;;;;;;;;;5032318;28;20029;-61
2021/11/23 05:12:09;;;;;;;0.40;0.40;;;;;;;;;;5031971;28;20494;-60
2021/11/23 05:14:35;;;;;;;0.80;0.60;;;;;;;;;;5041631;28;20021;-60
2021/11/23 05:17:01;;;;;;;2.08;1.27;;;;;;;;;;5053125;28;20064;-61
2021/11/23 05:19:27;;;;;;;0.73;0.50;;;;;;;;;;5051500;28;20596;-61
2021/11/23 05:21:53;;;;;;;1.73;0.80;;;;;;;;;;5052803;28;20394;-60
2021/11/23 05:24:19;;;;;;;0.85;0.60;;;;;;;;;;5051583;28;20399;-59
2021/11/23 05:26:45;;;;;;;2.08;0.65;;;;;;;;;;5050617;28;20017;-60
2021/11/23 05:29:11;;;;;;;1.83;0.77;;;;;;;;;;5054796;28;20067;-60
2021/11/23 05:31:38;;;;;;;1.35;0.65;;;;;;;;;;5043464;28;20024;-61
2021/11/23 05:34:04;;;;;;;0.63;0.60;;;;;;;;;;5052895;28;20101;-60
2021/11/23 05:36:30;;;;;;;0.98;0.88;;;;;;;;;;5051327;28;20355;-60
2021/11/23 05:38:56;;;;;;;2.35;0.82;;;;;;;;;;5052741;28;20497;-60
2021/11/23 05:41:22;;;;;;;1.10;1.00;;;;;;;;;;5049199;28;20021;-60
2021/11/23 05:43:48;;;;;;;1.02;0.70;;;;;;;;;;5050418;28;20029;-60
2021/11/23 05:46:14;;;;;;;1.10;0.70;;;;;;;;;;5048824;28;20075;-60
2021/11/23 05:48:41;;;;;;;1.52;0.90;;;;;;;;;;5054183;28;20029;-60
2021/11/23 05:51:09;;;;;;;1.42;1.00;;;;;;;;;;5049810;28;20463;-59
2021/11/23 05:53:41;;;;;;;1.38;0.70;;;;;;;;;;5051706;28;20108;-60
2021/11/23 05:56:10;;;;;;;1.10;0.65;;;;;;;;;;5048737;28;20029;-59
2021/11/23 05:58:36;;;;;;;1.20;0.93;;;;;;;;;;5051627;28;20048;-59
2021/11/23 06:01:03;;;;;;;0.90;0.80;;;;;;;;;;5057533;28;20492;-59
2021/11/23 06:03:29;;;;;;;0.90;0.60;;;;;;;;;;5050729;28;20025;-60
2021/11/23 06:05:55;;;;;;;6.18;1.08;;;;;;;;;;5056083;28;20032;-60
2021/11/23 06:08:22;;;;;;;0.85;0.57;;;;;;;;;;5070531;28;20063;-60
2021/11/23 06:10:48;;;;;;;1.00;0.80;;;;;;;;;;5070902;28;20542;-60
2021/11/23 06:13:15;;;;;;;0.80;0.65;;;;;;;;;;5070700;28;20358;-60
2021/11/23 06:15:45;;;;;;;2.17;0.95;;;;;;;;;;5071574;28;20037;-61
2021/11/23 06:18:13;;;;;;;0.57;0.50;;;;;;;;;;5070153;28;20040;-59
2021/11/23 06:20:39;;;;;;;1.75;0.63;;;;;;;;;;5071083;28;20414;-59
2021/11/23 06:23:06;;;;;;;3.53;0.80;;;;;;;;;;5066869;28;20029;-59
2021/11/23 06:25:32;;;;;;;0.60;0.60;;;;;;;;;;5070707;28;20158;-59
2021/11/23 06:27:58;;;;;;;0.82;0.70;;;;;;;;;;5071360;28;20021;-59
2021/11/23 06:30:24;;;;;;;0.80;0.60;;;;;;;;;;5070226;28;20107;-61
2021/11/23 06:32:50;;;;;;;1.45;0.70;;;;;;;;;;5058982;28;20474;-60
2021/11/23 06:35:16;;;;;;;0.85;0.65;;;;;;;;;;5070174;28;20640;-60
2021/11/23 06:37:43;;;;;;;1.38;0.68;;;;;;;;;;5072925;28;20393;-60
2021/11/23 06:40:12;;;;;;;0.75;0.63;;;;;;;;;;5073275;28;20029;-60
2021/11/23 06:42:38;;;;;;;1.55;0.75;;;;;;;;;;5074569;28;20096;-60
2021/11/23 06:45:05;;;;;;;1.35;0.57;;;;;;;;;;5074358;28;20021;-59
2021/11/23 06:47:31;;;;;;;2.70;0.65;;;;;;;;;;5073646;28;20060;-59
2021/11/23 06:49:57;;;;;;;2.53;1.15;;;;;;;;;;5070212;28;20017;-58
2021/11/23 06:52:24;;;;;;;1.85;0.93;;;;;;;;;;5090975;28;20067;-66
2021/11/23 06:54:51;;;;;;;3.35;2.00;;;;;;;;;;5076436;28;20028;-58
2021/11/23 06:57:17;;;;;;;4.60;1.90;;;;;;;;;;5075909;28;20031;-60
2021/11/23 06:59:45;;;;;;;4.10;1.60;;;;;;;;;;5074141;28;20477;-60
2021/11/23 07:02:17;;;;;;;2.83;1.60;;;;;;;;;;5067913;28;20112;-59
2021/11/23 07:04:43;;;;;;;2.88;1.15;;;;;;;;;;5053653;28;20021;-60
2021/11/23 07:07:16;;;;;;;2.78;1.48;;;;;;;;;;5054068;28;20021;-62
2021/11/23 07:09:42;;;;;;;2.50;1.50;;;;;;;;;;5069641;28;20063;-62
2021/11/23 07:12:09;;;;;;;3.45;1.50;;;;;;;;;;5074167;28;20115;-60
2021/11/23 07:14:38;;;;;;;2.33;1.17;;;;;;;;;;5073422;28;20031;-60
2021/11/23 07:17:04;;;;;;;1.73;1.55;;;;;;;;;;5073809;28;20037;-60
2021/11/23 07:19:31;;;;;;;2.60;1.27;;;;;;;;;;5065380;28;20624;-62
2021/11/23 07:21:57;;;;;;;2.08;1.40;;;;;;;;;;5054568;28;20029;-62
2021/11/23 07:24:23;;;;;;;2.80;1.30;;;;;;;;;;5057933;28;20053;-62
2021/11/23 07:26:49;;;;;;;4.70;1.38;;;;;;;;;;5053730;28;20478;-61
2021/11/23 07:29:16;;;;;;;3.47;1.35;;;;;;;;;;5053017;28;20071;-61
2021/11/23 07:31:42;;;;;;;1.90;0.90;;;;;;;;;;5052451;28;20016;-61
2021/11/23 07:34:08;;;;;;;3.85;1.13;;;;;;;;;;5070401;28;20039;-59
2021/11/23 07:36:36;;;;;;;3.80;1.40;;;;;;;;;;5073084;28;20060;-60
2021/11/23 07:39:04;;;;;;;2.22;1.20;;;;;;;;;;5053463;28;20070;-60
2021/11/23 07:41:30;;;;;;;4.55;1.92;;;;;;;;;;5066772;28;20032;-58
2021/11/23 07:43:57;;;;;;;5.80;1.00;;;;;;;;;;5067772;28;20064;-58
2021/11/23 07:46:25;;;;;;;2.03;1.00;;;;;;;;;;5064165;28;20044;-58
2021/11/23 07:48:51;;;;;;;6.18;1.38;;;;;;;;;;5065456;28;20048;-58
2021/11/23 07:51:18;;;;;;;4.97;1.23;;;;;;;;;;5058959;28;20111;-58
2021/11/23 07:53:44;;;;;;;6.03;1.40;;;;;;;;;;5064020;28;20382;-58
2021/11/23 07:56:10;;;;;;;6.25;1.30;;;;;;;;;;5066305;28;20029;-58
2021/11/23 07:58:36;;;;;;;3.05;1.30;;;;;;;;;;5059121;28;20107;-57
2021/11/23 08:01:03;;;;;;;3.72;1.25;;;;;;;;;;5061688;28;20039;-58
2021/11/23 08:03:29;;;;;;;2.28;1.30;;;;;;;;;;5053520;28;20025;-57
2021/11/23 08:05:56;;;;;;;3.08;1.10;;;;;;;;;;5054045;28;20065;-56
2021/11/23 08:08:22;;;;;;;7.13;1.50;;;;;;;;;;5068517;28;20017;-57
2021/11/23 08:10:48;;;;;;;2.78;1.55;;;;;;;;;;5068805;28;20016;-57
2021/11/23 08:13:16;;;;;;;2.15;1.20;;;;;;;;;;5087026;28;20429;-56
2021/11/23 08:15:42;;;;;;;5.20;0.93;;;;;;;;;;5057801;28;20025;-57
2021/11/23 08:18:09;;;;;;;4.32;1.10;;;;;;;;;;5064042;28;20024;-56
2021/11/23 08:20:35;;;;;;;2.90;1.10;;;;;;;;;;5059180;28;20608;-56
2021/11/23 08:23:02;;;;;;;2.78;1.10;;;;;;;;;;5055713;28;20099;-56
2021/11/23 08:25:28;;;;;;;1.60;1.00;;;;;;;;;;5067935;28;20058;-56
2021/11/23 08:27:54;;;;;;;4.28;1.15;;;;;;;;;;5056259;28;20025;-55
2021/11/23 08:30:21;;;;;;;1.85;0.90;;;;;;;;;;5071357;28;20032;-56
2021/11/23 08:32:47;;;;;;;2.85;0.80;;;;;;;;;;5061576;28;20029;-57
2021/11/23 08:35:13;;;;;;;4.78;0.93;;;;;;;;;;5062273;28;20049;-57
2021/11/23 08:37:42;;;;;;;3.40;1.08;;;;;;;;;;5056059;28;20029;-57
2021/11/23 08:40:08;;;;;;;2.08;1.15;;;;;;;;;;5049952;28;20162;-57
2021/11/23 08:42:37;;;;;;;2.75;1.00;;;;;;;;;;5070741;28;20493;-57
2021/11/23 08:45:05;;;;;;;1.58;1.17;;;;;;;;;;5061626;28;20031;-56
2021/11/23 08:47:31;;;;;;;2.15;1.35;;;;;;;;;;5065445;28;20024;-57
2021/11/23 08:49:57;;;;;;;2.55;1.30;;;;;;;;;;5061789;28;20032;-57
2021/11/23 08:52:26;;;;;;;2.28;1.30;;;;;;;;;;5068745;28;20374;-57
2021/11/23 08:54:52;;;;;;;2.45;1.10;;;;;;;;;;5066464;28;20021;-56
2021/11/23 08:57:19;;;;;;;1.83;1.20;;;;;;;;;;5059685;28;20103;-58
2021/11/23 08:59:46;;;;;;;2.08;1.00;;;;;;;;;;5070864;28;20024;-44
2021/11/23 09:02:13;;;;;;;2.67;1.30;;;;;;;;;;5051840;28;20024;-47
2021/11/23 09:04:41;;;;;;;5.22;1.10;;;;;;;;;;5059919;28;20032;-46
2021/11/23 09:07:08;;;;;;;2.03;1.10;;;;;;;;;;5065410;28;20553;-48
2021/11/23 09:09:35;;;;;;;2.55;1.10;;;;;;;;;;5066874;28;20089;-45
2021/11/23 09:12:03;;;;;;;5.80;1.00;;;;;;;;;;5060672;28;20028;-47
2021/11/23 09:14:33;;;;;;;2.45;0.93;;;;;;;;;;5064887;28;20024;-44
2021/11/23 09:17:00;;;;;;;4.60;1.00;;;;;;;;;;5056132;28;20032;-48
2021/11/23 09:19:26;;;;;;;4.70;1.13;;;;;;;;;;5061949;28;20048;-47
2021/11/23 09:21:55;;;;;;;2.67;1.05;;;;;;;;;;5060804;28;20021;-48
2021/11/23 09:24:22;;;;;;;3.00;1.00;;;;;;;;;;5064999;28;20450;-47
2021/11/23 09:26:50;;;;;;;1.25;0.77;;;;;;;;;;5066972;28;20028;-46
2021/11/23 09:29:22;;;;;;;3.28;1.10;;;;;;;;;;5066314;28;20049;-47
2021/11/23 09:31:49;;;;;;;2.15;1.17;;;;;;;;;;5056911;28;20029;-48
2021/11/23 09:34:22;;;;;;;2.90;1.08;;;;;;;;;;5068994;28;20036;-45
2021/11/23 09:36:50;;;;;;;2.22;0.90;;;;;;;;;;5054865;28;20056;-48
2021/11/23 09:39:18;;;;;;;5.00;1.10;;;;;;;;;;5064330;28;20136;-48
2021/11/23 09:41:45;;;;;;;5.35;1.15;;;;;;;;;;5052435;28;20028;-43
2021/11/23 09:44:11;;;;;;;3.15;1.05;;;;;;;;;;5067367;28;20051;-47
2021/11/23 09:46:39;;;;;;;4.35;1.10;;;;;;;;;;5068748;28;20198;-51
2021/11/23 09:49:09;;;;;;;8.23;1.40;;;;;;;;;;5069610;28;20040;-48
2021/11/23 09:51:36;;;;;;;12.13;2.10;;;;;;;;;;5069972;28;20040;-47
2021/11/23 09:54:03;;;;;;;5.65;1.20;;;;;;;;;;5059912;28;20040;-48
2021/11/23 09:56:30;;;;;;;1.98;1.00;;;;;;;;;;5058364;28;20025;-52
2021/11/23 09:58:57;;;;;;;2.22;1.17;;;;;;;;;;5057172;28;20056;-49
2021/11/23 10:01:28;;;;;;;4.20;2.30;;;;;;;;;;5059049;28;20033;-47
2021/11/23 10:03:55;;;;;;;4.07;1.45;;;;;;;;;;5062556;28;20055;-48
2021/11/23 10:06:23;;;;;;;5.60;1.30;;;;;;;;;;5064242;28;20025;-46
2021/11/23 10:08:51;;;;;;;2.20;1.52;;;;;;;;;;5054510;28;20041;-44
2021/11/23 10:11:23;;;;;;;4.03;1.50;;;;;;;;;;5072894;28;20034;-49
2021/11/23 10:13:50;;;;;;;5.47;1.00;;;;;;;;;;5074498;28;20033;-44
2021/11/23 10:16:23;;;;;;;2.50;1.20;;;;;;;;;;5071121;28;20510;-51
2021/11/23 10:18:50;;;;;;;4.72;1.40;;;;;;;;;;5074764;28;20143;-47
2021/11/23 10:21:24;;;;;;;2.22;1.10;;;;;;;;;;5072629;28;20040;-48
2021/11/23 10:23:56;;;;;;;4.30;1.67;;;;;;;;;;5063700;28;20024;-47
2021/11/23 10:26:26;;;;;;;3.60;1.00;;;;;;;;;;5061914;28;20028;-46
2021/11/23 10:28:54;;;;;;;1.33;1.02;;;;;;;;;;5058220;28;20033;-46
2021/11/23 10:31:21;;;;;;;2.70;1.10;;;;;;;;;;5068425;28;20057;-48
2021/11/23 10:33:55;;;;;;;2.33;0.70;;;;;;;;;;5064130;28;20027;-45
2021/11/23 10:36:21;;;;;;;1.23;0.95;;;;;;;;;;5071453;28;20080;-46
2021/11/23 10:38:48;;;;;;;2.88;1.00;;;;;;;;;;5068790;28;20029;-45
2021/11/23 10:41:15;;;;;;;2.70;1.20;;;;;;;;;;5102740;28;20060;-45
2021/11/23 10:43:42;;;;;;;1.70;0.85;;;;;;;;;;5061839;28;20059;-45
2021/11/23 10:46:12;;;;;;;2.08;0.93;;;;;;;;;;5071692;28;20032;-45
2021/11/23 10:48:39;;;;;;;3.88;1.13;;;;;;;;;;5073435;28;20024;-45
2021/11/23 10:51:07;;;;;;;3.25;1.23;;;;;;;;;;5060189;28;20541;-45
2021/11/23 10:53:34;;;;;;;1.67;0.98;;;;;;;;;;5065696;28;20025;-45
2021/11/23 10:56:09;;;;;;;2.78;1.10;;;;;;;;;;5065300;28;20028;-51
2021/11/23 10:58:35;;;;;;;2.90;1.20;;;;;;;;;;5073363;28;20043;-46
2021/11/23 11:01:04;;;;;;;5.47;1.38;;;;;;;;;;5057473;28;20021;-49
2021/11/23 11:03:31;;;;;;;2.17;1.00;;;;;;;;;;5099005;28;20079;-45
2021/11/23 11:05:59;;;;;;;1.95;0.95;;;;;;;;;;5064480;28;20427;-45
2021/11/23 11:08:27;;;;;;;4.85;1.30;;;;;;;;;;5073233;28;20089;-45
2021/11/23 11:10:54;;;;;;;2.15;1.00;;;;;;;;;;5065091;28;20024;-44
2021/11/23 11:13:22;;;;;;;3.67;1.20;;;;;;;;;;5067517;28;20509;-49
2021/11/23 11:15:56;;;;;;;3.58;1.23;;;;;;;;;;5063155;28;20042;-47
2021/11/23 11:18:23;;;;;;;4.68;1.00;;;;;;;;;;5072912;28;20037;-45
2021/11/23 11:20:50;;;;;;;5.88;1.25;;;;;;;;;;5072844;28;20024;-44
2021/11/23 11:23:45;;;;;;;2.92;1.33;;;;;;;;;;5057622;28;20016;-49
2021/11/23 11:28:46;;;;;;;3.92;1.10;;;;;;;;;;5072659;28;20035;-44
2021/11/23 11:31:31;;;;;;;2.58;1.02;;;;;;;;;;5057990;28;20138;-45
2021/11/23 11:34:16;;;;;;;4.03;1.40;;;;;;;;;;5068016;28;20025;-45
2021/11/23 11:36:43;;;;;;;2.85;1.20;;;;;;;;;;5067149;28;20057;-47
2021/11/23 11:39:09;;;;;;;2.35;1.00;;;;;;;;;;5073077;28;20119;-45
2021/11/23 11:41:39;;;;;;;3.05;1.23;;;;;;;;;;5062989;28;20470;-44
2021/11/23 11:44:08;;;;;;;2.50;1.20;;;;;;;;;;5061396;28;20418;-43
2021/11/23 11:46:34;;;;;;;3.13;1.75;;;;;;;;;;5067839;28;20047;-44
2021/11/23 11:49:01;;;;;;;4.45;1.45;;;;;;;;;;5072342;28;20056;-42
2021/11/23 11:51:33;;;;;;;1.92;1.27;;;;;;;;;;5066110;28;20021;-44
2021/11/23 11:54:00;;;;;;;3.95;1.27;;;;;;;;;;5064127;28;20029;-44
2021/11/23 11:56:37;;;;;;;5.20;1.98;;;;;;;;;;5072238;28;20423;-45
2021/11/23 11:59:07;;;;;;;6.10;1.45;;;;;;;;;;5069801;28;20021;-45
2021/11/23 12:01:36;;;;;;;4.78;1.70;;;;;;;;;;5067524;28;20065;-44
2021/11/23 12:04:04;;;;;;;3.55;2.22;;;;;;;;;;5061278;28;20029;-45
2021/11/23 12:06:49;;;;;;;4.65;1.45;;;;;;;;;;5067302;28;20043;-45
2021/11/23 12:09:31;;;;;;;4.03;1.48;;;;;;;;;;5042336;28;20029;-47
2021/11/23 12:12:10;;;;;;;6.85;1.77;;;;;;;;;;5071820;28;20036;-43
2021/11/23 12:14:38;;;;;;;2.45;1.10;;;;;;;;;;5055774;28;20858;-44
2021/11/23 12:17:17;;;;;;;5.53;1.70;;;;;;;;;;5059697;28;20532;-45
2021/11/23 12:20:02;;;;;;;3.40;1.42;;;;;;;;;;5036977;28;20035;-46
2021/11/23 12:22:37;;;;;;;3.30;1.20;;;;;;;;;;5055108;28;20377;-45
2021/11/23 12:25:04;;;;;;;4.43;1.60;;;;;;;;;;5056318;28;20351;-45
2021/11/23 12:27:34;;;;;;;3.03;1.38;;;;;;;;;;5051755;28;20021;-45
2021/11/23 12:30:00;;;;;;;1.80;1.13;;;;;;;;;;5049558;28;20474;-50
2021/11/23 12:32:34;;;;;;;2.63;1.27;;;;;;;;;;5051294;28;20021;-45
2021/11/23 12:35:01;;;;;;;2.97;1.15;;;;;;;;;;5054642;28;20509;-44
2021/11/23 12:37:34;;;;;;;7.75;1.30;;;;;;;;;;5052453;28;20029;-48
2021/11/23 12:40:13;;;;;;;4.32;1.52;;;;;;;;;;5049855;28;20022;-48
2021/11/23 12:42:55;;;;;;;3.53;1.17;;;;;;;;;;5051125;28;20021;-46
2021/11/23 12:45:27;;;;;;;2.40;1.20;;;;;;;;;;5051628;28;20033;-50
2021/11/23 12:47:53;;;;;;;;;;;;;;;;;;5055045;28;20486;-44
2021/11/23 12:50:20;;;;;;;2.63;1.30;;;;;;;;;;5050400;28;19951;-48
2021/11/23 12:52:46;;;;;;;2.67;1.20;;;;;;;;;;5051386;28;20540;-44
2021/11/23 12:55:18;;;;;;;2.75;1.33;;;;;;;;;;5053671;28;20051;-47
2021/11/23 12:57:52;;;;;;;6.00;1.60;;;;;;;;;;5053219;28;20016;-49
2021/11/23 13:00:21;;;;;;;1.85;1.00;;;;;;;;;;5049035;28;20017;-49
2021/11/23 13:02:49;;;;;;;3.03;1.45;;;;;;;;;;5057246;28;20016;-50
2021/11/23 13:05:22;;;;;;;2.88;1.10;;;;;;;;;;5052268;28;20032;-49
2021/11/23 13:07:59;;;;;;;7.65;1.70;;;;;;;;;;5051638;28;20028;-50
2021/11/23 13:10:28;;;;;;;4.15;1.30;;;;;;;;;;5049169;28;20068;-45
2021/11/23 13:13:00;;;;;;;2.47;0.93;;;;;;;;;;5052901;28;20443;-46
2021/11/23 13:15:31;;;;;;;3.22;1.10;;;;;;;;;;5053368;28;20020;-44
2021/11/23 13:17:58;;;;;;;1.77;1.00;;;;;;;;;;5054308;28;20434;-48
2021/11/23 13:20:33;;;;;;;4.22;1.38;;;;;;;;;;5050084;28;20104;-47
2021/11/23 13:23:08;;;;;;;2.17;1.00;;;;;;;;;;5051846;28;20017;-46
2021/11/23 13:25:34;;;;;;;3.97;1.27;;;;;;;;;;5050236;28;20033;-45
2021/11/23 13:28:00;;;;;;;2.60;0.90;;;;;;;;;;5042399;28;20043;-46
2021/11/23 13:30:34;;;;;;;2.58;1.10;;;;;;;;;;5054794;28;20029;-46
2021/11/23 13:33:08;;;;;;;1.40;1.00;;;;;;;;;;5055739;28;20041;-45
2021/11/23 13:35:34;;;;;;;2.30;1.20;;;;;;;;;;5049906;28;20488;-45
2021/11/23 13:38:00;;;;;;;1.67;1.00;;;;;;;;;;5053542;28;20037;-47
2021/11/23 13:40:27;;;;;;;1.27;0.93;;;;;;;;;;5052911;28;20480;-44
2021/11/23 13:42:53;;;;;;;2.05;1.00;;;;;;;;;;5055263;28;20441;-45
2021/11/23 13:45:21;;;;;;;1.92;0.80;;;;;;;;;;5050754;28;20032;-48
2021/11/23 13:47:49;;;;;;;1.80;1.00;;;;;;;;;;5051350;28;20029;-44
2021/11/23 13:50:16;;;;;;;2.08;1.00;;;;;;;;;;5050770;28;20021;-45
2021/11/23 13:52:42;;;;;;;4.20;0.82;;;;;;;;;;5052896;28;20029;-44
2021/11/23 13:55:11;;;;;;;1.80;0.85;;;;;;;;;;5053945;28;20036;-47
2021/11/23 13:57:48;;;;;;;1.88;1.00;;;;;;;;;;5047281;28;20100;-44
2021/11/23 14:00:25;;;;;;;1.40;0.95;;;;;;;;;;5050886;28;20048;-46
2021/11/23 14:02:51;;;;;;;1.42;0.80;;;;;;;;;;5054362;28;20029;-47
2021/11/23 14:05:35;;;;;;;1.60;0.80;;;;;;;;;;5053122;28;20405;-54
2021/11/23 14:08:03;;;;;;;2.75;1.08;;;;;;;;;;5048861;28;20025;-46
2021/11/23 14:10:40;;;;;;;3.13;0.95;;;;;;;;;;5051061;28;20033;-45
2021/11/23 14:13:06;;;;;;;1.80;0.80;;;;;;;;;;5050788;28;20416;-45
2021/11/23 14:15:46;;;;;;;1.23;0.98;;;;;;;;;;5051310;28;20040;-44
2021/11/23 14:18:18;;;;;;;2.20;0.90;;;;;;;;;;5050902;28;20029;-44
2021/11/23 14:20:47;;;;;;;1.50;0.80;;;;;;;;;;5052544;28;20106;-44
2021/11/23 14:23:13;;;;;;;1.73;1.15;;;;;;;;;;5056455;28;20466;-45
2021/11/23 14:25:40;;;;;;;1.98;1.10;;;;;;;;;;5061681;28;20044;-43
2021/11/23 14:28:07;;;;;;;4.05;0.82;;;;;;;;;;5049887;28;20043;-44
2021/11/23 14:30:34;;;;;;;1.73;0.90;;;;;;;;;;5046261;28;20024;-45
2021/11/23 14:33:02;;;;;;;1.67;0.90;;;;;;;;;;5050773;28;20077;-47
2021/11/23 14:35:28;;;;;;;3.17;1.10;;;;;;;;;;5048793;28;20453;-47
2021/11/23 14:37:55;;;;;;;2.25;0.93;;;;;;;;;;5051990;28;20384;-44
2021/11/23 14:40:25;;;;;;;1.80;0.70;;;;;;;;;;5049849;28;20083;-46
2021/11/23 14:42:51;;;;;;;4.85;0.85;;;;;;;;;;5050976;28;20025;-44
2021/11/23 14:45:19;;;;;;;2.58;1.20;;;;;;;;;;5050006;28;20036;-43
2021/11/23 14:47:45;;;;;;;2.33;1.13;;;;;;;;;;5051933;28;20028;-45
2021/11/23 14:50:12;;;;;;;3.08;0.80;;;;;;;;;;5055276;28;20375;-44